Time;durP1;ratioP1;P1;durP2;ratioP2;P2;SDS_P1;SDS_P2;PMS_P1;PMS_P2;Temp;Humidity;BMP_temperature;BMP_pressure;BME280_temperature;BME280_humidity;BME280_pressure;Samples;Min_cycle;Max_cycle;Signal;HPM_P1;HPM_P2
2022/12/17 13:07:23;;;;;;;45.60;26.20;;;-1.30;99.90;;;;;;6206062;28;20475;-79
2022/12/17 13:10:30;;;;;;;48.37;26.77;;;-1.40;99.90;;;;;;6201256;28;20062;-78
2022/12/17 13:13:35;;;;;;;41.20;27.70;;;-1.50;99.90;;;;;;6202528;28;20046;-79
2022/12/17 13:16:48;;;;;;;49.30;26.07;;;-1.50;99.90;;;;;;6199724;28;20042;-78
2022/12/17 13:20:00;;;;;;;42.17;24.97;;;-1.60;99.90;;;;;;6200669;28;20050;-77
2022/12/17 13:23:17;;;;;;;49.37;28.70;;;-1.60;99.90;;;;;;6201708;28;20061;-78
2022/12/17 13:26:24;;;;;;;46.13;29.50;;;-1.60;99.90;;;;;;6203896;28;20046;-78
2022/12/17 13:29:29;;;;;;;60.88;33.08;;;-1.50;99.90;;;;;;6201205;28;20046;-79
2022/12/17 13:32:39;;;;;;;49.83;29.80;;;-1.40;99.90;;;;;;6200824;28;20646;-78
2022/12/17 13:35:46;;;;;;;51.87;31.03;;;-1.40;99.90;;;;;;6216037;28;20052;-78
2022/12/17 13:38:57;;;;;;;60.50;30.75;;;-1.30;99.90;;;;;;6223206;28;20042;-79
2022/12/17 13:41:59;;;;;;;64.40;30.20;;;-1.30;99.90;;;;;;6224661;28;20057;-79
2022/12/17 13:45:01;;;;;;;44.90;25.77;;;-1.30;99.90;;;;;;6224724;28;20058;-79
2022/12/17 13:48:03;;;;;;;50.50;29.70;;;-1.40;99.90;;;;;;6223868;28;20046;-79
2022/12/17 13:51:05;;;;;;;56.90;31.10;;;-1.40;99.90;;;;;;6224118;28;20053;-79
2022/12/17 13:54:16;;;;;;;55.67;31.30;;;-1.40;99.90;;;;;;6224276;28;20038;-78
2022/12/17 13:57:21;;;;;;;56.60;36.07;;;-1.30;99.90;;;;;;6224369;28;20053;-82
2022/12/17 14:00:25;;;;;;;56.77;32.33;;;-1.20;99.90;;;;;;6223029;28;20527;-78
2022/12/17 14:03:27;;;;;;;50.73;29.13;;;-1.20;99.90;;;;;;6201948;28;20045;-79
2022/12/17 14:06:33;;;;;;;53.73;29.37;;;-1.20;99.90;;;;;;6205533;28;20037;-79
2022/12/17 14:09:43;;;;;;;59.63;30.67;;;-1.20;99.90;;;;;;6224303;28;20049;-79
2022/12/17 14:12:46;;;;;;;42.97;27.30;;;-1.20;99.90;;;;;;6223941;28;20045;-80
2022/12/17 14:15:50;;;;;;;49.13;27.67;;;-1.20;99.90;;;;;;6224074;28;20415;-79
2022/12/17 14:18:53;;;;;;;51.93;30.43;;;-1.20;99.90;;;;;;6223199;28;20053;-79
2022/12/17 14:21:56;;;;;;;50.47;27.73;;;-1.30;99.90;;;;;;6225191;28;20061;-79
2022/12/17 14:24:59;;;;;;;46.87;27.20;;;-1.40;99.90;;;;;;6227128;28;20077;-79
2022/12/17 14:28:03;;;;;;;48.33;27.03;;;-1.50;99.90;;;;;;6226199;28;20053;-78
2022/12/17 14:31:07;;;;;;;56.00;27.07;;;-1.60;99.90;;;;;;6224304;28;20080;-79
2022/12/17 14:34:10;;;;;;;59.17;30.60;;;-1.70;99.90;;;;;;6223661;28;20504;-79
2022/12/17 14:37:18;;;;;;;48.80;30.57;;;-1.80;99.90;;;;;;6226445;28;20154;-78
2022/12/17 14:40:23;;;;;;;57.67;37.07;;;-1.90;99.90;;;;;;6224961;28;20058;-78
2022/12/17 14:43:29;;;;;;;52.40;31.53;;;-1.90;99.90;;;;;;6223108;28;20057;-77
2022/12/17 14:46:32;;;;;;;53.87;29.83;;;-2.00;99.90;;;;;;6221966;28;20499;-78
2022/12/17 14:49:34;;;;;;;47.43;28.07;;;-2.10;99.90;;;;;;6222976;28;20475;-79
2022/12/17 14:52:40;;;;;;;58.60;32.00;;;-2.10;99.90;;;;;;6222071;28;20053;-79
2022/12/17 14:55:55;;;;;;;53.07;30.07;;;-2.20;99.90;;;;;;6222002;28;20046;-78
2022/12/17 14:58:56;;;;;;;56.60;31.57;;;-2.30;99.90;;;;;;6230000;28;20046;-79
2022/12/17 15:02:01;;;;;;;43.43;27.00;;;-2.40;99.90;;;;;;6228773;28;20042;-80
2022/12/17 15:05:03;;;;;;;47.43;29.13;;;-2.50;99.90;;;;;;6233785;28;20056;-79
2022/12/17 15:08:05;;;;;;;48.57;29.90;;;-2.50;99.90;;;;;;6264906;22;20057;-79
2022/12/17 15:11:11;;;;;;;49.13;28.53;;;-2.60;99.90;;;;;;6259951;28;20049;-80
2022/12/17 15:14:13;;;;;;;58.27;30.70;;;-2.70;99.90;;;;;;6259182;28;20048;-80
2022/12/17 15:17:16;;;;;;;55.30;31.93;;;-2.80;99.90;;;;;;6258871;28;20058;-81
2022/12/17 15:20:19;;;;;;;56.27;29.03;;;-2.90;99.90;;;;;;6260342;28;20046;-80
2022/12/17 15:23:23;;;;;;;54.00;30.83;;;-3.00;99.90;;;;;;6262829;28;20053;-81
2022/12/17 15:26:26;;;;;;;64.23;30.77;;;-3.10;99.90;;;;;;6260718;28;20053;-80
2022/12/17 15:29:28;;;;;;;60.43;32.10;;;-3.20;99.90;;;;;;6260522;28;20049;-79
2022/12/17 15:32:29;;;;;;;56.87;31.03;;;-3.10;99.90;;;;;;6267603;28;20047;-79
2022/12/17 15:35:31;;;;;;;49.80;31.03;;;-3.20;99.90;;;;;;6281400;28;20049;-79
2022/12/17 15:38:33;;;;;;;67.07;36.43;;;-3.30;99.90;;;;;;6289234;28;20060;-79
2022/12/17 15:44:55;;;;;;;51.03;33.13;;;-3.50;99.90;;;;;;6259816;28;20125;-80
2022/12/17 15:47:57;;;;;;;55.33;32.33;;;-3.60;99.90;;;;;;6256173;28;20418;-79
2022/12/17 15:50:58;;;;;;;62.47;31.33;;;-3.80;99.90;;;;;;6259326;28;20056;-80
2022/12/17 15:54:01;;;;;;;65.27;36.00;;;-3.60;99.90;;;;;;6260211;28;20054;-80
2022/12/17 15:57:04;;;;;;;86.27;47.20;;;-3.00;99.90;;;;;;6261032;28;20053;-80
2022/12/17 16:00:13;;;;;;;115.27;60.50;;;-2.50;99.90;;;;;;6258963;28;20053;-81
2022/12/17 16:03:14;;;;;;;114.60;59.43;;;-2.00;99.90;;;;;;6267895;28;20043;-79
2022/12/17 16:06:16;;;;;;;126.87;66.77;;;-1.70;99.90;;;;;;6260826;28;20052;-80
2022/12/17 16:09:23;;;;;;;116.87;57.83;;;-1.50;99.90;;;;;;6258533;28;20054;-80
2022/12/17 16:12:26;;;;;;;105.30;53.00;;;-1.50;99.90;;;;;;6257412;28;20046;-81
2022/12/17 16:15:28;;;;;;;80.50;41.67;;;-1.50;99.90;;;;;;6256452;28;20056;-82
2022/12/17 16:18:30;;;;;;;75.03;40.30;;;-2.00;99.90;;;;;;6257592;28;20049;-80
2022/12/17 16:21:31;;;;;;;70.07;37.53;;;-2.60;99.90;;;;;;6258559;28;20049;-79
2022/12/17 16:24:33;;;;;;;66.67;34.73;;;-3.10;99.90;;;;;;6258561;28;20057;-80
2022/12/17 16:27:40;;;;;;;63.60;35.30;;;-3.40;99.90;;;;;;6255912;28;20049;-80
2022/12/17 16:30:42;;;;;;;62.23;32.70;;;-3.60;99.90;;;;;;6256805;28;20049;-79
2022/12/17 16:33:46;;;;;;;67.43;34.17;;;-3.80;99.90;;;;;;6266955;28;20069;-82
2022/12/17 16:36:48;;;;;;;61.80;31.67;;;-3.90;99.90;;;;;;6255438;28;20446;-79
2022/12/17 16:39:51;;;;;;;64.93;34.40;;;-4.10;99.90;;;;;;6255216;28;20407;-77
2022/12/17 16:42:55;;;;;;;68.90;40.13;;;-4.20;99.90;;;;;;6255857;28;20061;-79
2022/12/17 16:45:57;;;;;;;63.60;35.13;;;-4.30;99.90;;;;;;6255865;28;20061;-79
2022/12/17 16:49:04;;;;;;;66.10;36.30;;;-4.40;99.90;;;;;;6254344;28;20053;-79
2022/12/17 16:52:06;;;;;;;66.18;37.45;;;-4.40;99.90;;;;;;6253392;28;20041;-80
2022/12/17 16:55:08;;;;;;;64.60;33.13;;;-4.30;99.90;;;;;;6253128;28;20053;-79
2022/12/17 16:58:11;;;;;;;63.43;32.97;;;-4.40;99.90;;;;;;6251793;28;20494;-79
2022/12/17 17:01:17;;;;;;;75.87;38.33;;;-4.50;99.90;;;;;;6245565;28;20064;-79
2022/12/17 17:04:21;;;;;;;64.40;34.50;;;-4.50;99.90;;;;;;6239174;28;20053;-78
2022/12/17 17:07:23;;;;;;;72.43;33.73;;;-4.70;99.90;;;;;;6225403;28;20046;-80
2022/12/17 17:10:25;;;;;;;79.87;34.17;;;-4.70;99.90;;;;;;6230125;28;20072;-79
2022/12/17 17:13:28;;;;;;;65.30;30.33;;;-4.90;99.90;;;;;;6229330;28;20057;-80
2022/12/17 17:16:30;;;;;;;63.00;30.23;;;-4.90;99.90;;;;;;6229298;28;20050;-79
2022/12/17 17:19:31;;;;;;;65.60;33.33;;;-5.00;99.90;;;;;;6227253;28;20042;-79
2022/12/17 17:22:33;;;;;;;66.97;34.20;;;-5.10;99.90;;;;;;6226432;28;20050;-79
2022/12/17 17:25:35;;;;;;;73.27;33.80;;;-5.10;99.90;;;;;;6250248;28;20049;-79
2022/12/17 17:28:39;;;;;;;65.47;35.20;;;-5.10;99.90;;;;;;6249777;28;20064;-78
2022/12/17 17:31:41;;;;;;;83.63;37.73;;;-5.20;99.90;;;;;;6241916;28;20041;-79
2022/12/17 17:34:42;;;;;;;76.57;37.07;;;-5.30;99.90;;;;;;6233288;28;20508;-78
2022/12/17 17:37:44;;;;;;;63.27;27.47;;;-5.30;99.90;;;;;;6225553;28;20057;-78
2022/12/17 17:40:46;;;;;;;63.73;33.23;;;-5.30;99.90;;;;;;6224584;28;20054;-79
2022/12/17 17:43:53;;;;;;;78.77;37.70;;;-5.40;99.90;;;;;;6241150;28;20057;-79
2022/12/17 17:46:54;;;;;;;69.10;35.10;;;-5.40;99.90;;;;;;6247699;28;20049;-79
2022/12/17 17:49:56;;;;;;;75.80;34.27;;;-5.40;99.90;;;;;;6246913;28;20060;-81
2022/12/17 17:52:58;;;;;;;79.60;39.67;;;-5.50;99.90;;;;;;6249352;28;20076;-80
2022/12/17 17:56:04;;;;;;;109.20;51.47;;;-5.50;99.90;;;;;;6248471;28;20045;-79
2022/12/17 17:59:09;;;;;;;88.40;40.77;;;-4.60;99.90;;;;;;6247400;28;20045;-78
2022/12/17 18:02:11;;;;;;;89.87;38.80;;;-4.50;99.90;;;;;;6239294;28;20380;-79
2022/12/17 18:05:13;;;;;;;105.53;48.87;;;-4.80;99.90;;;;;;6238056;28;20060;-78
2022/12/17 18:08:14;;;;;;;88.63;44.40;;;-5.00;99.90;;;;;;6222064;28;20041;-78
2022/12/17 18:11:19;;;;;;;86.13;46.67;;;-5.20;99.90;;;;;;6235626;28;20049;-79
2022/12/17 18:14:21;;;;;;;92.03;46.97;;;-5.30;99.90;;;;;;6249150;28;20422;-79
2022/12/17 18:17:23;;;;;;;71.47;37.53;;;-5.40;99.90;;;;;;6248101;28;20060;-78
2022/12/17 18:20:24;;;;;;;72.33;39.23;;;-5.50;99.90;;;;;;6248228;28;20052;-80
2022/12/17 18:23:26;;;;;;;76.23;37.50;;;-5.40;99.90;;;;;;6250486;28;20064;-79
2022/12/17 18:26:29;;;;;;;74.40;38.40;;;-5.40;99.90;;;;;;6252237;28;20045;-78
2022/12/17 18:29:33;;;;;;;77.03;36.67;;;-5.50;99.90;;;;;;6248900;28;20053;-78
2022/12/17 18:32:35;;;;;;;84.60;37.70;;;-5.60;99.90;;;;;;6247994;28;20076;-79
2022/12/17 18:35:36;;;;;;;84.43;40.37;;;-5.70;99.90;;;;;;6247630;28;20045;-79
2022/12/17 18:38:38;;;;;;;75.40;35.07;;;-5.80;99.90;;;;;;6251451;28;20419;-79
2022/12/17 18:45:03;;;;;;;78.87;41.40;;;-5.90;99.90;;;;;;6253226;28;20053;-78
2022/12/17 18:48:05;;;;;;;76.67;36.30;;;-5.90;99.90;;;;;;6251667;28;20060;-78
2022/12/17 18:51:07;;;;;;;80.33;35.23;;;-5.90;99.90;;;;;;6252893;28;20482;-79
2022/12/17 18:54:13;;;;;;;67.33;35.90;;;-6.00;99.90;;;;;;6256345;28;20037;-79
2022/12/17 18:57:15;;;;;;;73.30;34.97;;;-6.00;99.90;;;;;;6276830;28;20056;-78
2022/12/17 19:00:18;;;;;;;79.13;39.40;;;-6.10;99.90;;;;;;6278322;28;20120;-78
2022/12/17 19:03:20;;;;;;;74.40;38.57;;;-6.10;99.90;;;;;;6263461;28;20045;-78
2022/12/17 19:06:23;;;;;;;89.77;37.43;;;-6.20;99.90;;;;;;6251406;28;20064;-79
2022/12/17 19:09:33;;;;;;;82.83;39.63;;;-6.20;99.90;;;;;;6253572;28;20054;-80
2022/12/17 19:12:34;;;;;;;83.90;37.17;;;-6.30;99.90;;;;;;6263333;28;20554;-79
2022/12/17 19:15:38;;;;;;;72.83;36.87;;;-6.30;99.90;;;;;;6277127;28;20506;-79
2022/12/17 19:18:40;;;;;;;93.10;41.97;;;-6.30;99.90;;;;;;6278497;28;20045;-80
2022/12/17 19:21:42;;;;;;;82.07;37.47;;;-6.30;99.90;;;;;;6279661;28;20202;-80
2022/12/17 19:24:44;;;;;;;81.37;39.97;;;-6.30;99.90;;;;;;6276990;28;20045;-80
2022/12/17 19:27:46;;;;;;;68.53;33.70;;;-6.40;99.90;;;;;;6276335;28;20052;-79
2022/12/17 19:30:55;;;;;;;65.60;31.43;;;-6.50;99.90;;;;;;6272498;28;20050;-80
2022/12/17 19:33:58;;;;;;;74.77;38.97;;;-6.50;99.90;;;;;;6264215;28;20124;-78
2022/12/17 19:37:00;;;;;;;71.97;34.30;;;-6.60;99.90;;;;;;6254215;28;20049;-80
2022/12/17 19:40:02;;;;;;;72.70;32.27;;;-6.60;99.90;;;;;;6252611;28;20050;-81
2022/12/17 19:43:03;;;;;;;76.47;39.93;;;-6.60;99.90;;;;;;6251346;28;20049;-78
2022/12/17 19:46:09;;;;;;;77.40;33.03;;;-6.70;99.90;;;;;;6252207;28;22584;-80
2022/12/17 19:49:11;;;;;;;66.47;30.93;;;-6.80;99.90;;;;;;6251319;28;20056;-79
2022/12/17 19:52:13;;;;;;;63.73;30.47;;;-6.80;99.90;;;;;;6251722;28;20091;-79
2022/12/17 19:55:16;;;;;;;77.03;36.13;;;-6.90;99.90;;;;;;6251375;28;20049;-79
2022/12/17 19:58:18;;;;;;;77.07;37.13;;;-7.00;99.90;;;;;;6250236;28;20069;-79
2022/12/17 20:01:23;;;;;;;62.60;29.73;;;-7.10;99.90;;;;;;6250923;28;20056;-78
2022/12/17 20:04:25;;;;;;;68.73;32.97;;;-7.20;99.90;;;;;;6251184;28;20450;-79
2022/12/17 20:07:26;;;;;;;65.67;27.57;;;-7.30;99.90;;;;;;6248862;28;20507;-78
2022/12/17 20:10:28;;;;;;;73.30;34.07;;;-7.40;99.90;;;;;;6250056;28;20042;-78
2022/12/17 20:13:30;;;;;;;62.63;29.73;;;-7.50;99.90;;;;;;6252249;28;20053;-79
2022/12/17 20:16:35;;;;;;;71.43;32.50;;;-7.50;99.90;;;;;;6250847;28;20434;-79
2022/12/17 20:19:37;;;;;;;72.33;35.53;;;-7.60;99.90;;;;;;6249277;28;20057;-79
2022/12/17 20:22:39;;;;;;;93.20;39.63;;;-7.60;99.90;;;;;;6250596;28;20049;-78
2022/12/17 20:25:40;;;;;;;80.50;35.50;;;-7.60;99.90;;;;;;6251385;28;20053;-78
2022/12/17 20:28:42;;;;;;;73.70;32.77;;;-7.60;99.90;;;;;;6253660;28;20055;-79
2022/12/17 20:31:47;;;;;;;54.33;31.83;;;-7.60;99.90;;;;;;6274519;28;20582;-78
2022/12/17 20:34:50;;;;;;;68.13;28.13;;;-7.70;99.90;;;;;;6258417;28;20049;-79
2022/12/17 20:37:52;;;;;;;61.23;28.00;;;-7.80;99.90;;;;;;6250256;28;20491;-79
2022/12/17 20:40:53;;;;;;;61.27;32.30;;;-7.90;99.90;;;;;;6251052;28;20422;-79
2022/12/17 20:43:56;;;;;;;69.80;35.30;;;-8.00;99.90;;;;;;6250884;28;20057;-78
2022/12/17 20:47:00;;;;;;;71.10;37.37;;;-8.00;99.90;;;;;;6251000;28;20053;-78
2022/12/17 20:50:01;;;;;;;72.60;37.03;;;-8.00;99.90;;;;;;6249932;28;20076;-78
2022/12/17 20:53:03;;;;;;;75.73;34.43;;;-8.10;99.90;;;;;;6250194;28;20045;-78
2022/12/17 20:56:07;;;;;;;76.07;32.30;;;-8.10;99.90;;;;;;6248179;28;20045;-78
2022/12/17 20:59:14;;;;;;;80.27;34.60;;;-8.20;99.90;;;;;;6248803;28;20049;-78
2022/12/17 21:02:17;;;;;;;72.85;36.30;;;-8.20;99.90;;;;;;6249666;28;20045;-78
2022/12/17 21:05:19;;;;;;;74.00;36.70;;;-8.20;99.90;;;;;;6258200;28;20064;-79
2022/12/17 21:08:21;;;;;;;62.43;31.80;;;-8.20;99.90;;;;;;6251503;28;20430;-80
2022/12/17 21:11:25;;;;;;;67.10;27.97;;;-8.30;99.90;;;;;;6250192;28;20529;-79
2022/12/17 21:14:27;;;;;;;79.80;33.27;;;-8.40;99.90;;;;;;6254868;28;20045;-80
2022/12/17 21:17:29;;;;;;;65.17;30.63;;;-8.50;99.90;;;;;;6252841;28;20053;-78
2022/12/17 21:20:31;;;;;;;71.90;28.03;;;-8.60;99.90;;;;;;6254630;28;20050;-78
2022/12/17 21:23:34;;;;;;;63.43;31.03;;;-8.60;99.90;;;;;;6255061;28;20041;-78
2022/12/17 21:26:37;;;;;;;76.07;38.07;;;-8.60;99.90;;;;;;6256112;28;20049;-79
2022/12/17 21:29:39;;;;;;;66.90;31.40;;;-8.70;99.90;;;;;;6258925;28;20061;-79
2022/12/17 21:32:42;;;;;;;69.50;29.00;;;-8.70;99.90;;;;;;6266980;28;20045;-78
2022/12/17 21:35:44;;;;;;;64.50;30.57;;;-8.80;99.90;;;;;;6280106;28;20054;-79
2022/12/17 21:38:46;;;;;;;69.33;31.93;;;-8.80;99.90;;;;;;6278286;28;20056;-80
2022/12/17 21:45:05;;;;;;;70.23;31.10;;;-8.80;99.90;;;;;;6278898;28;20547;-79
2022/12/17 21:48:10;;;;;;;61.57;29.00;;;-8.90;99.90;;;;;;6277027;28;20052;-80
2022/12/17 21:51:12;;;;;;;74.97;33.73;;;-8.90;99.90;;;;;;6263692;28;20076;-80
2022/12/17 21:54:14;;;;;;;68.13;28.63;;;-8.90;99.90;;;;;;6256307;28;20049;-79
2022/12/17 21:57:16;;;;;;;74.53;33.63;;;-8.90;99.90;;;;;;6252783;28;20064;-78
2022/12/17 22:00:18;;;;;;;77.30;30.67;;;-8.90;99.90;;;;;;6254709;28;20056;-78
2022/12/17 22:03:21;;;;;;;50.10;23.43;;;-9.00;99.90;;;;;;6269387;28;20056;-78
2022/12/17 22:06:25;;;;;;;63.30;32.83;;;-9.00;99.90;;;;;;6275876;28;20044;-78
2022/12/17 22:09:26;;;;;;;49.00;28.10;;;-9.10;99.90;;;;;;6266309;28;20499;-79
2022/12/17 22:15:47;;;;;;;56.57;29.67;;;-9.20;99.90;;;;;;6252770;28;20045;-78
2022/12/17 22:18:51;;;;;;;61.77;28.50;;;-9.10;99.90;;;;;;6251336;28;20201;-78
2022/12/17 22:21:53;;;;;;;56.07;24.97;;;-9.10;99.90;;;;;;6250426;28;20049;-78
2022/12/17 22:24:54;;;;;;;44.20;23.33;;;-9.10;99.90;;;;;;6251441;28;20050;-77
2022/12/17 22:27:56;;;;;;;53.07;24.67;;;-9.20;99.90;;;;;;6250035;28;20076;-79
2022/12/17 22:34:24;;;;;;;116.57;52.50;;;-9.40;99.90;;;;;;6244187;28;20042;-77
2022/12/17 22:37:26;;;;;;;51.90;24.60;;;-9.40;99.90;;;;;;6227034;28;20054;-80
2022/12/17 22:40:28;;;;;;;60.93;29.50;;;-9.40;99.90;;;;;;6225548;28;20551;-78
2022/12/17 22:43:29;;;;;;;48.60;25.80;;;-9.40;99.90;;;;;;6174987;28;20064;-78
2022/12/17 22:46:31;;;;;;;53.73;26.33;;;-9.40;99.90;;;;;;6244423;28;20033;-78
2022/12/17 22:49:34;;;;;;;61.00;26.60;;;-9.40;99.90;;;;;;6226872;28;20050;-78
2022/12/17 22:52:36;;;;;;;56.97;20.53;;;-9.40;99.90;;;;;;6227629;28;20050;-78
2022/12/17 22:55:38;;;;;;;56.33;23.50;;;-9.50;99.90;;;;;;6228450;28;20050;-78
2022/12/17 22:58:40;;;;;;;51.07;26.97;;;-9.50;99.90;;;;;;6226908;28;20061;-78
2022/12/17 23:01:42;;;;;;;64.33;29.80;;;-9.50;99.90;;;;;;6227704;28;20488;-79
2022/12/17 23:04:45;;;;;;;70.23;28.30;;;-9.50;99.90;;;;;;6226632;28;20566;-79
2022/12/17 23:07:46;;;;;;;80.53;31.77;;;-9.50;99.90;;;;;;6228628;28;20057;-79
2022/12/17 23:10:48;;;;;;;62.50;27.67;;;-9.40;99.90;;;;;;6226461;28;20508;-78
2022/12/17 23:13:50;;;;;;;68.03;29.93;;;-9.40;99.90;;;;;;6225543;28;20053;-78
2022/12/17 23:16:52;;;;;;;71.77;32.80;;;-9.40;99.90;;;;;;6227865;28;20046;-78
2022/12/17 23:19:55;;;;;;;84.60;36.23;;;-9.50;99.90;;;;;;6231083;28;20057;-78
2022/12/17 23:22:57;;;;;;;73.53;31.43;;;-9.40;99.90;;;;;;6232673;28;20083;-78
2022/12/17 23:26:05;;;;;;;79.17;32.27;;;-9.50;99.90;;;;;;6234152;28;20054;-78
2022/12/17 23:29:08;;;;;;;63.10;27.10;;;-9.50;99.90;;;;;;6232930;28;20050;-78
2022/12/17 23:32:10;;;;;;;67.47;26.23;;;-9.50;99.90;;;;;;6231697;28;20538;-79
2022/12/17 23:35:13;;;;;;;66.13;30.77;;;-9.60;99.90;;;;;;6231681;28;20068;-79
2022/12/17 23:38:15;;;;;;;70.67;28.03;;;-9.70;99.90;;;;;;6231738;28;20183;-79
2022/12/17 23:41:19;;;;;;;58.43;24.07;;;-9.70;99.90;;;;;;6233148;28;20054;-79
2022/12/17 23:44:20;;;;;;;60.43;23.20;;;-9.70;99.90;;;;;;6232928;28;20050;-78
2022/12/17 23:47:22;;;;;;;54.60;25.77;;;-9.80;99.90;;;;;;6231320;28;20048;-79
2022/12/17 23:50:25;;;;;;;61.73;25.07;;;-9.80;99.90;;;;;;6232580;28;20046;-79
2022/12/17 23:53:28;;;;;;;66.13;33.43;;;-9.90;99.90;;;;;;6232867;28;20514;-79
2022/12/17 23:56:29;;;;;;;56.53;27.47;;;-9.90;99.90;;;;;;6233298;28;20052;-79
2022/12/17 23:59:31;;;;;;;68.80;31.27;;;-9.90;99.90;;;;;;6227446;28;20086;-78
